Latest Weather Observations for Cape Nelson

IDV60801

Issued at 1:35 pm EST Friday 1 August 2014 (issued every 30 minutes, with the page automatically refreshed every 10 minutes)

About weather observations | Map of weather stations | Latest weather observations for VIC | Other Formats
Station Details ID: 090184 Name: CAPE NELSON LIGHTHOUSE Lat: -38.43 Lon: 141.54 Height: 45.4 m
Data from the previous 72 hours. | See also: Recent months at Cape Nelson
Date/Time
EST
Temp
°C
App
Temp
°C
Dew
Point
Rel
Hum
%
Delta-T
°C
Wind Press
QNH
hPa
Press
MSL
hPa
Rain
since 9 am
mm
Dir
 
Spd
km/h
Gust
km/h
Spd
kts
Gust
kts
01/01:30pm 8.3 -2.9 3.8 73 1.9 S 52 72 28 39 1012.2 - 2.4
01/01:28pm 8.3 -2.5 4.3 76 1.8 S 50 69 27 37 1012.0 - 2.4
01/01:27pm 8.4 -2.3 4.4 76 1.8 S 50 65 27 35 1012.2 - 2.4
01/01:23pm 8.1 -6.6 3.8 74 1.9 SSW 70 89 38 48 1012.2 - 2.4
01/01:21pm 8.4 -7.4 3.7 72 2.0 SSW 76 89 41 48 1012.0 - 2.4
01/01:19pm 10.0 2.2 3.1 62 3.0 S 33 76 18 41 1011.1 - 2.4
01/01:18pm 10.0 2.4 2.6 60 3.2 S 32 56 17 30 1011.2 - 2.4
01/01:00pm 9.6 0.7 0.8 54 3.6 SSW 37 61 20 33 1010.8 1010.8 2.4
01/12:50pm 9.8 2.9 2.6 61 3.1 SSE 28 50 15 27 1010.6 - 2.4
01/12:30pm 9.3 0.0 2.9 64 2.7 S 41 67 22 36 1010.5 - 2.4
01/12:00pm 9.6 1.3 2.2 60 3.1 S 35 63 19 34 1009.7 1009.7 2.4
01/11:52am 9.2 2.5 3.6 68 2.4 ESE 28 48 15 26 1009.2 - 2.4
01/11:41am 9.6 3.6 5.4 75 1.9 NE 26 37 14 20 1008.8 - 2.4
01/11:30am 8.9 -0.2 3.9 71 2.2 S 41 67 22 36 1008.9 - 2.4
01/11:14am 7.8 -2.0 5.3 84 1.1 S 46 83 25 45 1008.7 - 2.4
01/11:10am 7.3 -1.9 5.4 88 0.8 S 43 63 23 34 1008.4 - 2.4
01/11:02am 6.4 -8.2 3.0 79 1.4 SSW 69 95 37 51 1008.9 - 1.4
01/11:01am 7.9 -1.6 3.9 76 1.7 S 43 91 23 49 1008.6 - 1.0
01/11:00am 9.0 0.4 4.4 73 2.0 S 39 67 21 36 1007.9 1007.9 0.8
01/10:54am 8.4 1.7 3.8 73 2.0 NE 28 50 15 27 1007.3 - 0.6
01/10:49am 9.2 -0.1 3.2 66 2.6 S 41 83 22 45 1007.7 - 0.4
01/10:35am 7.3 -0.5 1.6 67 2.3 S 32 52 17 28 1007.6 - 0.4
01/10:32am 8.9 -3.7 1.6 60 3.0 S 57 82 31 44 1006.8 - 0.0
01/10:30am 10.6 3.3 2.7 58 3.4 S 30 56 16 30 1006.7 - 0.0
01/10:00am 10.5 3.0 3.3 61 3.2 S 32 59 17 32 1005.5 1005.5 0.0
01/09:30am 10.1 1.6 0.7 52 3.9 S 35 56 19 30 1004.6 - 0.0
01/09:29am 10.1 1.6 0.7 52 3.9 S 35 56 19 30 1004.6 - 0.0
01/09:22am 9.8 -0.5 -0.7 48 4.1 SSW 43 52 23 28 1004.8 - 0.0
01/09:11am 9.7 -4.6 0.3 52 3.8 S 65 83 35 45 1004.3 - 0.0
01/09:07am 9.9 1.4 3.2 63 2.9 S 37 70 20 38 1003.7 - 0.0
01/09:02am 10.0 2.9 3.3 63 2.9 S 30 52 16 28 1003.4 - 0.0
01/09:00am 10.1 5.0 4.0 66 2.7 E 20 32 11 17 1003.4 1003.5 24.0
01/08:50am 9.8 3.1 3.8 66 2.6 SSE 28 52 15 28 1003.2 - 24.0
01/08:45am 9.6 3.3 3.6 66 2.6 SE 26 43 14 23 1003.2 - 24.0
01/08:30am 9.0 -1.3 2.8 65 2.6 S 46 67 25 36 1003.2 - 24.0
01/08:03am 8.3 -0.1 5.6 83 1.2 S 39 65 21 35 1001.9 - 24.0
01/08:01am 8.3 2.0 5.9 85 1.1 NE 28 48 15 26 1001.6 - 24.0
01/08:00am 8.2 2.3 5.7 84 1.1 NNE 26 48 14 26 1001.5 1001.6 23.8
01/07:44am 7.7 0.0 3.2 73 1.9 S 33 57 18 31 1001.2 - 23.6
01/07:30am 8.1 2.7 4.3 77 1.7 ENE 22 30 12 16 1000.8 - 23.4
01/07:17am 7.4 -0.1 3.5 76 1.7 SE 32 50 17 27 1000.3 - 23.4
01/07:11am 7.6 -1.8 4.2 79 1.5 S 43 78 23 42 1000.1 - 23.4
01/07:07am 8.0 -1.4 4.6 79 1.5 SSE 43 63 23 34 999.3 - 23.4
01/07:04am 8.6 1.8 5.2 79 1.5 NNE 30 48 16 26 999.4 - 23.4
01/07:00am 8.4 1.0 3.8 73 2.0 NNE 32 44 17 24 998.8 998.8 23.2
01/06:59am 8.5 1.1 3.9 73 2.0 NNE 32 52 17 28 998.8 - 23.2
01/06:30am 8.6 -0.4 4.6 76 1.8 W 41 61 22 33 999.3 - 23.2
01/06:19am 8.5 0.7 4.7 77 1.7 WNW 35 59 19 32 999.1 - 23.2
01/06:03am 9.7 -3.2 3.9 67 2.5 W 61 80 33 43 998.7 - 23.2
01/06:00am 10.2 -2.5 5.0 70 2.4 W 61 78 33 42 998.4 998.4 23.2
01/05:30am 9.3 0.5 3.7 68 2.4 W 39 65 21 35 998.7 - 23.2
01/05:01am 7.9 0.5 4.8 81 1.4 W 33 52 18 28 998.7 - 23.2
01/05:00am 8.0 0.8 4.9 81 1.4 W 32 48 17 26 998.8 998.8 23.2
01/04:30am 8.3 -3.0 3.6 72 2.0 W 52 80 28 43 998.4 - 23.0
01/04:13am 7.8 -2.7 5.4 85 1.1 W 50 93 27 50 998.7 - 22.4
01/04:11am 7.5 -1.2 6.0 90 0.7 W 41 59 22 32 998.8 - 22.4
01/04:00am 6.0 -0.7 3.8 86 0.9 NNW 28 44 15 24 998.4 998.4 20.2
01/03:52am 6.2 -0.5 3.5 83 1.1 N 28 50 15 27 997.7 - 20.2
01/03:41am 7.6 2.0 3.5 75 1.8 NNW 22 35 12 19 998.5 - 19.8
01/03:30am 10.4 1.0 4.3 66 2.7 WNW 43 61 23 33 998.5 - 19.4
01/03:23am 9.1 1.2 4.1 71 2.2 WNW 35 54 19 29 998.5 - 19.4
01/03:17am 8.9 -0.1 2.7 65 2.6 NNW 39 57 21 31 998.6 - 19.4
01/03:02am 10.5 2.0 5.1 69 2.5 WNW 39 57 21 31 998.4 - 19.4
01/03:00am 10.3 1.8 5.1 70 2.4 WNW 39 54 21 29 998.3 998.3 19.4
01/02:30am 10.1 0.8 4.9 70 2.3 WNW 43 61 23 33 998.8 - 19.4
01/02:00am 10.2 0.2 4.1 66 2.7 W 46 65 25 35 999.1 999.2 19.4
01/01:30am 10.1 -0.1 3.4 63 2.9 W 46 67 25 36 999.1 - 19.4
01/01:00am 9.5 -1.1 3.3 65 2.7 WNW 48 69 26 37 999.4 999.5 19.4
01/12:30am 9.7 -1.4 4.7 71 2.2 W 52 76 28 41 999.2 - 19.4
01/12:00am 9.4 -1.3 4.6 72 2.2 W 50 76 27 41 999.6 999.7 19.4
 
Date/Time
EST
Temp
°C
App
Temp
°C
Dew
Point
Rel
Hum
%
Delta-T
°C
Wind Press
QNH
hPa
Press
MSL
hPa
Rain
since 9 am
mm
Dir
 
Spd
km/h
Gust
km/h
Spd
kts
Gust
kts
31/11:30pm 10.0 -1.3 5.6 74 2.0 W 54 87 29 47 999.4 - 19.4
31/11:28pm 10.0 -1.5 4.4 68 2.5 W 54 87 29 47 999.3 - 19.4
31/11:00pm 9.8 0.2 4.6 70 2.3 W 44 65 24 35 999.2 999.3 19.4
31/10:44pm 8.4 2.0 5.2 80 1.4 WNW 28 52 15 28 999.5 - 19.4
31/10:30pm 8.3 0.8 4.7 78 1.6 WNW 33 50 18 27 999.7 - 19.4
31/10:00pm 9.1 -1.1 3.1 66 2.6 WNW 46 72 25 39 999.9 1000.0 19.2
31/09:30pm 9.1 -1.6 2.7 64 2.7 W 48 67 26 36 999.6 - 19.2
31/09:00pm 9.1 -1.7 2.0 61 3.0 WNW 48 67 26 36 999.2 999.3 19.2
31/08:30pm 8.8 -1.6 4.4 74 1.9 W 48 72 26 39 999.4 - 19.2
31/08:11pm 8.3 -3.4 3.6 72 2.0 W 54 76 29 41 999.1 - 19.2
31/08:00pm 7.2 -8.4 2.7 73 1.9 W 74 102 40 55 998.7 998.7 19.0
31/07:59pm 7.5 -9.6 2.6 71 2.0 W 82 102 44 55 998.7 - 19.0
31/07:30pm 10.2 -2.2 1.6 55 3.6 W 56 87 30 47 998.4 - 18.8
31/07:00pm 9.5 -2.9 2.4 61 3.0 W 57 82 31 44 997.8 997.8 18.6
31/06:54pm 9.9 -3.5 3.6 65 2.8 W 63 82 34 44 997.5 - 18.6
31/06:30pm 10.1 0.2 2.5 59 3.2 W 44 72 24 39 997.4 - 18.6
31/06:22pm 9.7 0.4 5.1 73 2.1 W 43 61 23 33 997.5 - 18.6
31/06:10pm 9.8 -3.7 3.1 63 2.9 W 63 85 34 46 997.2 - 18.6
31/06:00pm 10.1 1.5 4.7 69 2.4 W 39 61 21 33 997.3 997.3 18.6
31/05:56pm 9.9 1.2 4.1 67 2.6 W 39 61 21 33 997.2 - 18.6
31/05:30pm 10.2 -2.2 4.4 67 2.6 W 59 78 32 42 996.6 - 18.6
31/05:00pm 10.3 0.2 3.6 63 3.0 W 46 76 25 41 996.3 996.3 18.6
31/04:30pm 10.5 -1.1 4.0 64 2.9 W 54 83 29 45 996.0 - 18.6
31/04:00pm 10.9 0.0 3.5 60 3.3 W 50 76 27 41 995.8 995.8 18.6
31/03:30pm 11.3 -0.9 3.8 60 3.3 W 57 83 31 45 995.1 - 18.6
31/03:26pm 11.2 -0.2 3.0 57 3.6 W 52 83 28 45 995.0 - 18.6
31/03:20pm 11.4 1.6 5.3 66 2.8 W 46 65 25 35 994.9 - 18.6
31/03:12pm 11.3 -3.3 3.3 58 3.5 W 69 91 37 49 995.0 - 18.6
31/03:04pm 11.3 1.3 4.5 63 3.1 W 46 78 25 42 994.9 - 18.6
31/03:03pm 11.2 2.6 4.4 63 3.1 W 39 52 21 28 995.0 - 18.6
31/03:00pm 11.2 -2.1 4.0 61 3.2 W 63 83 34 45 994.9 994.9 18.6
31/02:57pm 11.1 -2.7 3.4 59 3.4 W 65 83 35 45 994.9 - 18.6
31/02:30pm 11.2 1.8 5.3 67 2.7 W 44 65 24 35 994.7 - 18.6
31/02:29pm 11.2 1.8 5.5 68 2.6 W 44 65 24 35 994.7 - 18.6
31/02:20pm 11.5 -2.6 3.8 59 3.4 W 67 85 36 46 994.2 - 18.6
31/02:19pm 11.4 -3.3 3.4 58 3.5 W 70 85 38 46 994.1 - 18.6
31/02:10pm 11.3 1.9 4.7 64 3.0 W 43 61 23 33 994.2 - 18.6
31/02:00pm 10.2 -3.5 3.7 64 2.9 W 65 111 35 60 994.0 994.0 18.4
31/01:30pm 11.6 -1.0 3.4 57 3.6 W 59 96 32 52 994.0 - 18.2
31/01:00pm 10.0 -4.6 3.1 62 3.0 W 69 102 37 55 994.1 994.1 18.2
31/12:30pm 9.9 -2.3 5.7 75 1.9 W 59 93 32 50 994.4 - 18.0
31/12:21pm 9.9 -3.8 5.7 75 1.9 W 67 87 36 47 994.2 - 18.0
31/12:19pm 10.1 0.0 5.7 74 2.0 W 48 87 26 47 994.4 - 17.8
31/12:18pm 10.5 1.5 6.5 76 1.9 W 43 59 23 32 994.6 - 17.8
31/12:00pm 9.5 -3.4 6.0 79 1.6 W 63 91 34 49 994.6 994.6 17.8
31/11:48am 9.5 -1.0 5.7 77 1.7 W 50 74 27 40 994.8 - 17.4
31/11:39am 9.4 -5.7 7.0 85 1.1 W 76 95 41 51 994.4 - 17.4
31/11:30am 10.2 -0.7 7.4 83 1.3 W 54 89 29 48 994.3 - 17.4
31/11:00am 9.9 -0.7 8.5 91 0.7 W 54 85 29 46 994.3 994.3 16.6
31/10:37am 10.3 1.3 8.7 90 0.8 W 46 83 25 45 993.9 - 14.6
31/10:30am 10.7 2.4 9.3 91 0.7 W 43 65 23 35 993.6 - 14.0
31/10:00am 10.3 1.9 9.5 95 0.4 W 44 65 24 35 993.4 993.4 12.2
31/09:43am 11.2 0.9 9.8 91 0.7 W 54 83 29 45 993.2 - 2.4
31/09:30am 12.0 3.0 10.2 89 0.9 NNW 48 76 26 41 991.9 - 0.6
31/09:08am 12.6 4.3 10.0 84 1.3 NNW 44 80 24 43 991.8 - 0.0
31/09:00am 12.9 4.7 9.7 81 1.7 NNW 43 61 23 33 992.2 992.2 1.0
31/08:30am 12.5 4.5 9.1 80 1.7 NNW 41 69 22 37 992.7 - 1.0
31/08:00am 12.2 4.6 9.2 82 1.5 NNW 39 67 21 36 993.6 993.6 1.0
31/07:30am 12.2 4.3 9.4 83 1.4 NNW 41 67 22 36 994.3 - 1.0
31/07:00am 12.2 4.7 9.6 84 1.3 NNW 39 69 21 37 994.8 994.8 1.0
31/06:30am 12.1 5.4 9.8 86 1.2 NNW 35 57 19 31 995.1 - 1.0
31/06:00am 12.7 4.6 10.1 84 1.4 NNW 43 65 23 35 995.8 995.8 1.0
31/05:30am 12.9 4.8 10.6 86 1.2 NNW 44 63 24 34 996.2 - 1.0
31/05:00am 13.3 5.0 9.5 78 2.0 NNW 43 69 23 37 996.5 996.5 0.8
31/04:30am 13.4 4.3 9.8 79 1.9 NNW 48 80 26 43 997.1 - 0.8
31/04:00am 13.3 4.6 9.9 80 1.8 NNW 46 69 25 37 997.8 997.8 0.8
31/03:30am 13.2 4.0 9.6 79 1.8 NW 48 69 26 37 998.6 - 0.8
31/03:00am 13.3 3.6 10.3 82 1.6 NW 52 72 28 39 999.1 999.2 0.8
31/02:30am 13.1 3.9 10.8 86 1.2 NW 50 69 27 37 999.7 - 0.8
31/02:00am 13.2 5.3 10.7 85 1.3 NW 43 70 23 38 1000.0 1000.1 0.8
31/01:30am 12.9 4.9 11.0 88 1.0 NW 44 76 24 41 1000.8 - 0.8
31/01:00am 14.0 5.7 10.0 77 2.1 NW 44 67 24 36 1001.2 1001.3 0.6
31/12:30am 14.0 5.3 10.0 77 2.1 NNW 46 69 25 37 1001.6 - 0.6
31/12:00am 13.8 5.8 10.4 80 1.8 NNW 43 63 23 34 1002.3 1002.4 0.6
 
Date/Time
EST
Temp
°C
App
Temp
°C
Dew
Point
Rel
Hum
%
Delta-T
°C
Wind Press
QNH
hPa
Press
MSL
hPa
Rain
since 9 am
mm
Dir
 
Spd
km/h
Gust
km/h
Spd
kts
Gust
kts
30/11:30pm 14.0 5.4 10.4 79 1.9 NNW 46 72 25 39 1002.9 - 0.6
30/11:00pm 13.8 5.8 10.6 81 1.7 NW 43 65 23 35 1003.4 1003.5 0.6
30/10:30pm 13.8 5.3 10.6 81 1.7 NW 46 67 25 36 1003.9 - 0.6
30/10:01pm 13.8 5.3 10.8 82 1.6 NW 46 65 25 35 1004.4 - 0.6
30/10:00pm 13.8 5.3 10.8 82 1.6 NW 46 63 25 34 1004.3 1004.3 0.6
30/09:30pm 13.7 4.7 10.3 80 1.8 NW 48 72 26 39 1004.3 - 0.6
30/09:00pm 13.9 5.0 10.7 81 1.7 NW 48 69 26 37 1004.8 1004.8 0.6
30/08:30pm 13.9 4.9 10.1 78 2.0 NW 48 69 26 37 1004.9 - 0.6
30/08:00pm 14.2 4.8 10.2 77 2.1 NNW 50 72 27 39 1004.8 1004.8 0.6
30/07:30pm 14.0 5.7 10.2 78 2.0 NW 44 65 24 35 1005.5 - 0.6
30/07:06pm 13.8 5.7 10.0 78 2.0 NW 43 61 23 33 1005.6 - 0.6
30/07:00pm 13.8 5.5 10.2 79 1.9 NW 44 59 24 32 1005.6 1005.6 0.6
30/06:32pm 13.8 5.3 10.8 82 1.6 NW 46 65 25 35 1006.0 - 0.6
30/06:30pm 13.8 5.3 10.8 82 1.6 NW 46 63 25 34 1006.1 - 0.6
30/06:06pm 14.0 5.5 10.6 80 1.8 NW 46 65 25 35 1006.0 - 0.6
30/06:00pm 13.9 5.8 10.7 81 1.7 NW 44 61 24 33 1006.0 1006.0 0.6
30/05:30pm 14.0 5.9 10.8 81 1.7 NW 44 67 24 36 1006.0 - 0.6
30/05:00pm 13.8 6.0 11.3 85 1.3 NW 43 65 23 35 1006.2 1006.2 0.6
30/04:32pm 14.0 6.8 12.0 88 1.1 WNW 41 69 22 37 1006.3 - 0.6
30/04:30pm 14.2 7.1 12.1 87 1.1 WNW 41 57 22 31 1006.4 - 0.4
30/04:00pm 14.4 6.2 11.7 84 1.5 NW 46 69 25 37 1006.4 1006.4 0.2
30/03:30pm 15.3 7.6 11.5 78 2.0 NW 43 67 23 36 1006.4 - 0.2
30/03:01pm 15.2 7.7 12.1 82 1.7 NW 43 61 23 33 1006.5 - 0.2
30/03:00pm 15.2 7.7 12.1 82 1.7 NW 43 57 23 31 1006.5 1006.5 0.2
30/02:30pm 14.9 6.8 11.9 82 1.6 NW 46 70 25 38 1006.6 - 0.2
30/02:00pm 15.0 6.9 12.1 83 1.6 WNW 46 67 25 36 1006.9 1006.9 0.2
30/01:30pm 15.3 7.9 12.4 83 1.6 WNW 43 65 23 35 1007.2 - 0.2
30/01:00pm 15.5 7.5 12.4 82 1.7 WNW 46 65 25 35 1007.6 1007.6 0.2
30/12:30pm 15.5 7.9 12.4 82 1.7 WNW 44 67 24 36 1008.1 - 0.2
30/12:00pm 14.7 7.0 12.2 85 1.4 WNW 44 65 24 35 1008.4 1008.4 0.2
30/11:30am 13.9 5.9 12.5 91 0.8 WNW 46 65 25 35 1008.9 - 0.2
30/11:03am 14.6 8.0 12.6 88 1.1 NW 39 59 21 32 1009.0 - 0.2
30/11:00am 14.8 8.3 13.0 89 1.0 NW 39 54 21 29 1009.1 1009.1 0.2
30/10:39am 14.2 7.7 12.9 92 0.7 NW 39 57 21 31 1009.2 - 0.2
30/10:30am 14.0 7.1 12.7 92 0.7 NW 41 56 22 30 1009.3 - 0.2
30/10:17am 14.1 8.0 13.1 94 0.6 NW 37 56 20 30 1009.3 - 0.2
30/10:00am 13.5 6.9 12.6 94 0.5 NW 39 54 21 29 1009.4 1009.4 0.2
30/09:30am 13.3 6.5 11.9 91 0.8 NW 39 56 21 30 1009.3 - 0.0
30/09:22am 13.4 6.9 11.8 90 0.9 NW 37 56 20 30 1009.3 - 0.0
30/09:00am 13.4 6.6 12.0 91 0.8 NW 39 56 21 30 1009.3 1009.3 3.2
30/08:30am 13.3 7.3 12.0 92 0.7 NW 35 54 19 29 1009.4 - 3.0
30/08:00am 12.7 6.1 11.4 92 0.7 NW 37 57 20 31 1009.3 1009.3 3.0
30/07:59am 12.7 6.1 11.4 92 0.7 NW 37 57 20 31 1009.2 - 3.0
30/07:30am 12.7 6.9 11.4 92 0.7 NW 33 46 18 25 1009.3 - 3.0
30/07:13am 12.7 7.1 11.4 92 0.7 NW 32 50 17 27 1009.1 - 3.0
30/07:00am 12.6 6.0 11.2 91 0.7 NW 37 52 20 28 1009.1 1009.1 3.0
30/06:30am 12.7 6.4 11.1 90 0.8 NNW 35 50 19 27 1008.8 - 3.0
30/06:08am 12.6 6.3 11.0 90 0.8 NW 35 54 19 29 1008.8 - 3.0
30/06:00am 12.5 6.1 10.7 89 0.9 NW 35 50 19 27 1008.7 1008.7 3.0
30/05:34am 12.6 6.2 10.7 88 1.0 NW 35 54 19 29 1008.7 - 3.0
30/05:30am 12.6 5.8 10.5 87 1.1 NW 37 54 20 29 1008.7 - 3.0
30/05:17am 12.6 6.6 10.8 89 0.9 NNW 33 54 18 29 1008.8 - 3.0
30/05:00am 13.0 8.0 10.9 87 1.1 NNW 28 35 15 19 1009.0 1009.0 3.0
30/04:30am 13.7 7.4 11.0 84 1.4 WNW 35 52 19 28 1009.2 - 3.0
30/04:28am 13.7 7.0 10.9 83 1.5 WNW 37 56 20 30 1009.2 - 3.0
30/04:00am 13.7 7.4 11.0 84 1.4 WNW 35 48 19 26 1009.3 1009.3 3.0
30/03:44am 13.6 6.8 10.8 83 1.5 WNW 37 56 20 30 1009.3 - 3.0
30/03:30am 13.5 6.4 10.9 84 1.4 WNW 39 54 21 29 1009.4 - 3.0
30/03:00am 13.7 6.5 10.5 81 1.7 WNW 39 52 21 28 1009.4 1009.4 3.0
30/02:35am 13.6 6.1 9.6 77 2.1 W 39 65 21 35 1009.6 - 3.0
30/02:30am 13.6 6.3 10.2 80 1.8 W 39 56 21 30 1009.6 - 3.0
30/02:22am 13.7 6.7 10.1 79 1.9 W 37 56 20 30 1009.7 - 3.0
30/02:00am 13.7 4.9 9.7 77 2.1 W 46 61 25 33 1009.7 1009.7 3.0
30/01:30am 13.7 4.1 9.4 75 2.2 W 50 67 27 36 1009.7 - 3.0
30/01:04am 14.0 4.2 10.0 77 2.1 W 52 70 28 38 1009.7 - 3.0
30/01:00am 13.9 3.6 9.5 75 2.3 W 54 70 29 38 1009.7 1009.7 3.0
30/12:30am 13.7 4.9 9.4 75 2.2 W 46 67 25 36 1009.4 - 3.0
30/12:01am 14.0 6.9 11.0 82 1.6 W 39 57 21 31 1009.3 - 3.0
30/12:00am 13.9 6.4 10.9 82 1.6 W 41 56 22 30 1009.3 1009.3 3.0
 
Date/Time
EST
Temp
°C
App
Temp
°C
Dew
Point
Rel
Hum
%
Delta-T
°C
Wind Press
QNH
hPa
Press
MSL
hPa
Rain
since 9 am
mm
Dir
 
Spd
km/h
Gust
km/h
Spd
kts
Gust
kts
29/11:30pm 13.8 7.3 10.4 80 1.8 W 35 59 19 32 1009.2 - 3.0
29/11:00pm 14.0 6.4 10.4 79 1.9 W 41 65 22 35 1009.1 1009.1 3.0
29/10:41pm 14.1 5.0 11.4 84 1.4 W 50 69 27 37 1009.1 - 3.0
29/10:31pm 14.2 8.8 12.1 87 1.1 W 32 50 17 27 1009.1 - 3.0
29/10:30pm 14.3 8.9 12.2 87 1.1 W 32 46 17 25 1009.1 - 3.0
29/10:07pm 14.3 6.8 12.0 86 1.2 W 43 61 23 33 1009.0 - 3.0
29/10:00pm 14.2 5.6 11.7 85 1.3 W 48 61 26 33 1008.8 1008.8 3.0
29/09:30pm 13.7 5.8 11.6 87 1.1 W 44 63 24 34 1008.4 - 3.0
29/09:00pm 13.0 3.2 11.6 91 0.7 W 54 91 29 49 1008.1 1008.1 3.0
29/08:51pm 13.3 3.8 11.2 87 1.1 WNW 52 91 28 49 1007.8 - 2.8
29/08:39pm 14.2 7.1 12.1 87 1.1 WNW 41 65 22 35 1008.0 - 2.8
29/08:30pm 14.2 7.5 12.2 88 1.1 WNW 39 54 21 29 1007.9 - 2.8
29/08:00pm 13.9 6.4 12.1 89 1.0 WNW 43 61 23 33 1007.6 1007.6 2.8
29/07:47pm 14.0 6.6 12.4 90 0.9 WNW 43 61 23 33 1007.5 - 2.8
29/07:30pm 14.0 6.5 12.2 89 1.0 WNW 43 57 23 31 1007.6 - 2.8
29/07:00pm 14.1 6.7 12.5 90 0.9 WNW 43 57 23 31 1007.2 1007.2 2.8
29/06:33pm 13.9 6.4 12.6 92 0.7 WNW 44 63 24 34 1006.9 - 2.8
29/06:30pm 14.0 6.7 12.7 92 0.7 WNW 43 59 23 32 1006.9 - 2.8
29/06:12pm 13.6 6.3 12.8 95 0.4 WNW 43 61 23 33 1006.9 - 2.8
29/06:00pm 13.4 5.5 12.6 95 0.4 WNW 46 63 25 34 1006.6 1006.6 2.8
29/05:30pm 13.2 5.2 12.4 95 0.4 WNW 46 65 25 35 1006.1 - 2.8
29/05:14pm 13.4 4.1 12.0 91 0.8 W 52 78 28 42 1005.9 - 2.2
29/05:00pm 14.3 5.6 12.7 90 0.9 NW 50 74 27 40 1005.2 1005.2 0.4
29/04:30pm 14.2 5.5 12.4 89 1.0 WNW 50 70 27 38 1005.0 - 0.2
29/04:00pm 14.8 6.9 12.7 87 1.2 WNW 46 65 25 35 1004.8 1004.8 0.2
29/03:30pm 14.6 5.8 12.3 86 1.3 WNW 50 76 27 41 1004.7 - 0.2
29/03:00pm 14.9 6.2 12.4 85 1.4 NW 50 82 27 44 1004.2 1004.2 0.2
29/02:30pm 15.1 6.4 12.6 85 1.4 WNW 50 70 27 38 1004.0 - 0.2
29/02:00pm 14.6 5.9 12.6 88 1.1 WNW 50 74 27 40 1003.8 1003.9 0.2

Other Formats:

Comma delimited format used in spreadsheet applications
http://www.bom.gov.au/fwo/IDV60801/IDV60801.94826.axf

JavaScript Object Notation format (JSON) in row-major order
http://www.bom.gov.au/fwo/IDV60801/IDV60801.94826.json